Terminal Aerodrome Forecast
Issued by NWS Spokane, WA

Home | Current Version | Previous Version | Text Only | Print | Product List | Glossary On
Versions: 1 2 3 4 5 6 7 8 9 10 11 12 13
000
FTUS46 KOTX 240759 AAA
TAFEAT
TAF AMD
KEAT 240759Z 2408/2506 35009KT P6SM SKC
     FM242100 29006KT P6SM SKC
     FM250200 32008KT P6SM SKC=

USA.gov is the U.S. government's official web portal to all federal, state and local government web resources and services.